sensor_id;sensor_type;location;lat;lon;timestamp;P1;durP1;ratioP1;P2;durP2;ratioP2
41629;SDS011;27322;49.488;8.480;2024-02-15T00:00:39;6.97;;;2.40;;
41629;SDS011;27322;49.488;8.480;2024-02-15T00:03:05;4.95;;;2.55;;
41629;SDS011;27322;49.488;8.480;2024-02-15T00:05:32;4.22;;;2.38;;
41629;SDS011;27322;49.488;8.480;2024-02-15T00:07:59;5.28;;;2.53;;
41629;SDS011;27322;49.488;8.480;2024-02-15T00:10:26;5.07;;;2.30;;
41629;SDS011;27322;49.488;8.480;2024-02-15T00:12:51;4.28;;;2.17;;
41629;SDS011;27322;49.488;8.480;2024-02-15T00:15:17;3.78;;;2.03;;
41629;SDS011;27322;49.488;8.480;2024-02-15T00:17:44;4.93;;;2.15;;
41629;SDS011;27322;49.488;8.480;2024-02-15T00:20:11;6.30;;;2.15;;
41629;SDS011;27322;49.488;8.480;2024-02-15T00:22:38;3.35;;;1.90;;
41629;SDS011;27322;49.488;8.480;2024-02-15T00:25:06;5.45;;;2.20;;
41629;SDS011;27322;49.488;8.480;2024-02-15T00:27:33;4.25;;;2.20;;
41629;SDS011;27322;49.488;8.480;2024-02-15T00:30:00;3.42;;;1.75;;
41629;SDS011;27322;49.488;8.480;2024-02-15T00:32:26;5.43;;;2.28;;
41629;SDS011;27322;49.488;8.480;2024-02-15T00:34:51;3.88;;;1.83;;
41629;SDS011;27322;49.488;8.480;2024-02-15T00:37:17;4.60;;;1.98;;
41629;SDS011;27322;49.488;8.480;2024-02-15T00:39:42;4.32;;;2.03;;
41629;SDS011;27322;49.488;8.480;2024-02-15T00:42:08;5.78;;;1.80;;
41629;SDS011;27322;49.488;8.480;2024-02-15T00:44:34;5.00;;;2.22;;
41629;SDS011;27322;49.488;8.480;2024-02-15T00:47:00;6.90;;;2.33;;
41629;SDS011;27322;49.488;8.480;2024-02-15T00:49:25;4.03;;;2.00;;
41629;SDS011;27322;49.488;8.480;2024-02-15T00:51:53;5.68;;;2.20;;
41629;SDS011;27322;49.488;8.480;2024-02-15T00:54:18;4.80;;;2.17;;
41629;SDS011;27322;49.488;8.480;2024-02-15T00:56:44;3.97;;;1.85;;
41629;SDS011;27322;49.488;8.480;2024-02-15T00:59:09;6.05;;;2.30;;
41629;SDS011;27322;49.488;8.480;2024-02-15T01:01:35;5.45;;;2.17;;
41629;SDS011;27322;49.488;8.480;2024-02-15T01:04:04;4.75;;;2.10;;
41629;SDS011;27322;49.488;8.480;2024-02-15T01:06:30;4.85;;;2.20;;
41629;SDS011;27322;49.488;8.480;2024-02-15T01:08:55;5.38;;;2.30;;
41629;SDS011;27322;49.488;8.480;2024-02-15T01:11:22;5.03;;;2.33;;
41629;SDS011;27322;49.488;8.480;2024-02-15T01:13:49;4.05;;;1.95;;
41629;SDS011;27322;49.488;8.480;2024-02-15T01:16:16;5.07;;;1.98;;
41629;SDS011;27322;49.488;8.480;2024-02-15T01:18:41;4.68;;;2.10;;
41629;SDS011;27322;49.488;8.480;2024-02-15T01:21:07;4.55;;;2.30;;
41629;SDS011;27322;49.488;8.480;2024-02-15T01:23:33;4.15;;;2.25;;
41629;SDS011;27322;49.488;8.480;2024-02-15T01:26:00;4.15;;;2.20;;
41629;SDS011;27322;49.488;8.480;2024-02-15T01:28:26;3.83;;;1.98;;
41629;SDS011;27322;49.488;8.480;2024-02-15T01:30:51;5.00;;;2.17;;
41629;SDS011;27322;49.488;8.480;2024-02-15T01:33:18;7.07;;;2.45;;
41629;SDS011;27322;49.488;8.480;2024-02-15T01:35:44;3.70;;;2.00;;
41629;SDS011;27322;49.488;8.480;2024-02-15T01:38:09;6.32;;;2.60;;
41629;SDS011;27322;49.488;8.480;2024-02-15T01:40:35;6.15;;;2.78;;
41629;SDS011;27322;49.488;8.480;2024-02-15T01:43:01;6.25;;;2.70;;
41629;SDS011;27322;49.488;8.480;2024-02-15T01:45:26;4.40;;;2.17;;
41629;SDS011;27322;49.488;8.480;2024-02-15T01:47:53;5.22;;;2.50;;
41629;SDS011;27322;49.488;8.480;2024-02-15T01:50:19;7.03;;;2.72;;
41629;SDS011;27322;49.488;8.480;2024-02-15T01:52:46;6.47;;;3.00;;
41629;SDS011;27322;49.488;8.480;2024-02-15T01:55:13;5.55;;;2.95;;
41629;SDS011;27322;49.488;8.480;2024-02-15T01:57:40;7.28;;;2.97;;
41629;SDS011;27322;49.488;8.480;2024-02-15T02:00:11;5.47;;;2.80;;
41629;SDS011;27322;49.488;8.480;2024-02-15T02:02:37;4.32;;;2.50;;
41629;SDS011;27322;49.488;8.480;2024-02-15T02:05:06;5.97;;;2.85;;
41629;SDS011;27322;49.488;8.480;2024-02-15T02:07:33;6.57;;;3.08;;
41629;SDS011;27322;49.488;8.480;2024-02-15T02:09:59;6.35;;;3.30;;
41629;SDS011;27322;49.488;8.480;2024-02-15T02:12:25;5.18;;;2.92;;
41629;SDS011;27322;49.488;8.480;2024-02-15T02:14:52;5.75;;;3.33;;
41629;SDS011;27322;49.488;8.480;2024-02-15T02:17:21;6.40;;;3.08;;
41629;SDS011;27322;49.488;8.480;2024-02-15T02:19:47;7.03;;;2.55;;
41629;SDS011;27322;49.488;8.480;2024-02-15T02:22:15;4.43;;;2.40;;
41629;SDS011;27322;49.488;8.480;2024-02-15T02:27:29;4.93;;;2.78;;
41629;SDS011;27322;49.488;8.480;2024-02-15T02:29:56;5.15;;;2.58;;
41629;SDS011;27322;49.488;8.480;2024-02-15T02:32:24;4.40;;;2.30;;
41629;SDS011;27322;49.488;8.480;2024-02-15T02:34:50;5.60;;;2.60;;
41629;SDS011;27322;49.488;8.480;2024-02-15T02:37:16;7.25;;;2.58;;
41629;SDS011;27322;49.488;8.480;2024-02-15T02:39:42;5.28;;;2.70;;
41629;SDS011;27322;49.488;8.480;2024-02-15T02:42:11;5.97;;;3.00;;
41629;SDS011;27322;49.488;8.480;2024-02-15T02:44:36;6.13;;;3.25;;
41629;SDS011;27322;49.488;8.480;2024-02-15T02:47:02;5.50;;;2.97;;
41629;SDS011;27322;49.488;8.480;2024-02-15T02:49:27;6.15;;;3.30;;
41629;SDS011;27322;49.488;8.480;2024-02-15T02:51:53;5.78;;;3.15;;
41629;SDS011;27322;49.488;8.480;2024-02-15T02:54:18;5.75;;;2.50;;
41629;SDS011;27322;49.488;8.480;2024-02-15T02:56:44;4.65;;;2.55;;
41629;SDS011;27322;49.488;8.480;2024-02-15T02:59:10;6.28;;;2.63;;
41629;SDS011;27322;49.488;8.480;2024-02-15T03:01:36;4.85;;;2.60;;
41629;SDS011;27322;49.488;8.480;2024-02-15T03:04:02;4.25;;;2.53;;
41629;SDS011;27322;49.488;8.480;2024-02-15T03:06:27;5.40;;;2.97;;
41629;SDS011;27322;49.488;8.480;2024-02-15T03:08:53;6.47;;;2.92;;
41629;SDS011;27322;49.488;8.480;2024-02-15T03:11:22;5.55;;;2.92;;
41629;SDS011;27322;49.488;8.480;2024-02-15T03:13:48;6.78;;;2.83;;
41629;SDS011;27322;49.488;8.480;2024-02-15T03:16:13;5.63;;;3.15;;
41629;SDS011;27322;49.488;8.480;2024-02-15T03:18:39;6.65;;;3.25;;
41629;SDS011;27322;49.488;8.480;2024-02-15T03:21:06;4.97;;;2.42;;
41629;SDS011;27322;49.488;8.480;2024-02-15T03:23:33;5.28;;;2.80;;
41629;SDS011;27322;49.488;8.480;2024-02-15T03:26:01;5.53;;;2.83;;
41629;SDS011;27322;49.488;8.480;2024-02-15T03:28:26;6.50;;;3.38;;
41629;SDS011;27322;49.488;8.480;2024-02-15T03:30:52;6.45;;;3.17;;
41629;SDS011;27322;49.488;8.480;2024-02-15T03:33:18;4.45;;;2.45;;
41629;SDS011;27322;49.488;8.480;2024-02-15T03:35:43;5.97;;;2.75;;
41629;SDS011;27322;49.488;8.480;2024-02-15T03:38:09;5.22;;;2.85;;
41629;SDS011;27322;49.488;8.480;2024-02-15T03:40:34;5.40;;;2.85;;
41629;SDS011;27322;49.488;8.480;2024-02-15T03:43:01;5.30;;;2.83;;
41629;SDS011;27322;49.488;8.480;2024-02-15T03:45:31;5.45;;;2.90;;
41629;SDS011;27322;49.488;8.480;2024-02-15T03:47:57;6.38;;;2.80;;
41629;SDS011;27322;49.488;8.480;2024-02-15T03:50:22;7.18;;;3.05;;
41629;SDS011;27322;49.488;8.480;2024-02-15T03:52:48;6.10;;;2.80;;
41629;SDS011;27322;49.488;8.480;2024-02-15T03:55:15;5.32;;;3.00;;
41629;SDS011;27322;49.488;8.480;2024-02-15T03:57:41;5.00;;;2.70;;
41629;SDS011;27322;49.488;8.480;2024-02-15T04:00:08;5.57;;;3.10;;
41629;SDS011;27322;49.488;8.480;2024-02-15T04:02:36;5.25;;;3.00;;
41629;SDS011;27322;49.488;8.480;2024-02-15T04:05:02;7.88;;;3.30;;
41629;SDS011;27322;49.488;8.480;2024-02-15T04:07:30;5.88;;;3.08;;
41629;SDS011;27322;49.488;8.480;2024-02-15T04:09:56;7.90;;;3.10;;
41629;SDS011;27322;49.488;8.480;2024-02-15T04:12:21;5.82;;;3.00;;
41629;SDS011;27322;49.488;8.480;2024-02-15T04:14:47;8.02;;;2.90;;
41629;SDS011;27322;49.488;8.480;2024-02-15T04:17:14;6.30;;;3.17;;
41629;SDS011;27322;49.488;8.480;2024-02-15T04:19:43;7.07;;;3.00;;
41629;SDS011;27322;49.488;8.480;2024-02-15T04:22:09;6.65;;;2.97;;
41629;SDS011;27322;49.488;8.480;2024-02-15T04:24:35;7.10;;;3.00;;
41629;SDS011;27322;49.488;8.480;2024-02-15T04:27:05;4.32;;;2.40;;
41629;SDS011;27322;49.488;8.480;2024-02-15T04:29:33;7.00;;;2.60;;
41629;SDS011;27322;49.488;8.480;2024-02-15T04:31:59;5.90;;;2.75;;
41629;SDS011;27322;49.488;8.480;2024-02-15T04:34:25;5.32;;;2.50;;
41629;SDS011;27322;49.488;8.480;2024-02-15T04:36:51;7.28;;;2.58;;
41629;SDS011;27322;49.488;8.480;2024-02-15T04:39:20;5.75;;;2.58;;
41629;SDS011;27322;49.488;8.480;2024-02-15T04:41:52;5.55;;;2.67;;
41629;SDS011;27322;49.488;8.480;2024-02-15T04:44:19;5.75;;;2.80;;
41629;SDS011;27322;49.488;8.480;2024-02-15T04:46:52;6.57;;;2.65;;
41629;SDS011;27322;49.488;8.480;2024-02-15T04:49:18;4.80;;;2.63;;
41629;SDS011;27322;49.488;8.480;2024-02-15T04:51:44;6.35;;;2.92;;
41629;SDS011;27322;49.488;8.480;2024-02-15T04:54:10;5.32;;;2.47;;
41629;SDS011;27322;49.488;8.480;2024-02-15T04:56:39;5.40;;;2.88;;
41629;SDS011;27322;49.488;8.480;2024-02-15T04:59:06;6.28;;;2.70;;
41629;SDS011;27322;49.488;8.480;2024-02-15T05:01:34;4.20;;;2.25;;
41629;SDS011;27322;49.488;8.480;2024-02-15T05:04:00;6.32;;;2.83;;
41629;SDS011;27322;49.488;8.480;2024-02-15T05:06:29;5.43;;;2.65;;
41629;SDS011;27322;49.488;8.480;2024-02-15T05:08:55;6.38;;;2.67;;
41629;SDS011;27322;49.488;8.480;2024-02-15T05:11:22;6.38;;;2.80;;
41629;SDS011;27322;49.488;8.480;2024-02-15T05:13:48;5.10;;;2.50;;
41629;SDS011;27322;49.488;8.480;2024-02-15T05:16:15;5.85;;;2.20;;
41629;SDS011;27322;49.488;8.480;2024-02-15T05:18:41;5.30;;;2.30;;
41629;SDS011;27322;49.488;8.480;2024-02-15T05:21:07;4.85;;;2.30;;
41629;SDS011;27322;49.488;8.480;2024-02-15T05:23:34;5.22;;;2.28;;
41629;SDS011;27322;49.488;8.480;2024-02-15T05:26:01;5.05;;;2.10;;
41629;SDS011;27322;49.488;8.480;2024-02-15T05:28:28;4.82;;;2.20;;
41629;SDS011;27322;49.488;8.480;2024-02-15T05:31:12;11.65;;;4.50;;
41629;SDS011;27322;49.488;8.480;2024-02-15T05:33:42;6.35;;;3.75;;
41629;SDS011;27322;49.488;8.480;2024-02-15T05:36:12;8.77;;;4.20;;
41629;SDS011;27322;49.488;8.480;2024-02-15T05:38:45;6.97;;;4.13;;
41629;SDS011;27322;49.488;8.480;2024-02-15T05:41:14;8.23;;;4.30;;
41629;SDS011;27322;49.488;8.480;2024-02-15T05:43:41;9.23;;;4.80;;
41629;SDS011;27322;49.488;8.480;2024-02-15T05:46:07;7.20;;;3.72;;
41629;SDS011;27322;49.488;8.480;2024-02-15T05:48:33;8.23;;;4.00;;
41629;SDS011;27322;49.488;8.480;2024-02-15T05:51:05;8.02;;;4.18;;
41629;SDS011;27322;49.488;8.480;2024-02-15T05:53:32;9.35;;;4.18;;
41629;SDS011;27322;49.488;8.480;2024-02-15T05:56:01;8.98;;;4.15;;
41629;SDS011;27322;49.488;8.480;2024-02-15T05:58:29;9.60;;;4.28;;
41629;SDS011;27322;49.488;8.480;2024-02-15T06:00:56;7.93;;;4.57;;
41629;SDS011;27322;49.488;8.480;2024-02-15T06:03:26;8.18;;;3.70;;
41629;SDS011;27322;49.488;8.480;2024-02-15T06:05:54;6.15;;;3.20;;
41629;SDS011;27322;49.488;8.480;2024-02-15T06:08:26;8.98;;;3.90;;
41629;SDS011;27322;49.488;8.480;2024-02-15T06:10:52;7.03;;;3.85;;
41629;SDS011;27322;49.488;8.480;2024-02-15T06:13:18;7.80;;;4.07;;
41629;SDS011;27322;49.488;8.480;2024-02-15T06:15:45;7.22;;;3.97;;
41629;SDS011;27322;49.488;8.480;2024-02-15T06:18:14;6.72;;;3.85;;
41629;SDS011;27322;49.488;8.480;2024-02-15T06:20:41;8.98;;;4.30;;
41629;SDS011;27322;49.488;8.480;2024-02-15T06:23:08;7.57;;;4.00;;
41629;SDS011;27322;49.488;8.480;2024-02-15T06:25:34;10.63;;;4.20;;
41629;SDS011;27322;49.488;8.480;2024-02-15T06:28:00;8.23;;;4.07;;
41629;SDS011;27322;49.488;8.480;2024-02-15T06:30:37;8.88;;;3.65;;
41629;SDS011;27322;49.488;8.480;2024-02-15T06:36:06;7.50;;;3.50;;
41629;SDS011;27322;49.488;8.480;2024-02-15T06:38:51;7.70;;;3.67;;
41629;SDS011;27322;49.488;8.480;2024-02-15T06:41:35;6.22;;;3.00;;
41629;SDS011;27322;49.488;8.480;2024-02-15T06:44:00;9.15;;;3.20;;
41629;SDS011;27322;49.488;8.480;2024-02-15T06:46:26;6.63;;;3.20;;
41629;SDS011;27322;49.488;8.480;2024-02-15T06:48:52;5.85;;;2.97;;
41629;SDS011;27322;49.488;8.480;2024-02-15T06:51:19;5.65;;;3.38;;
41629;SDS011;27322;49.488;8.480;2024-02-15T06:53:45;6.90;;;3.58;;
41629;SDS011;27322;49.488;8.480;2024-02-15T06:56:11;5.82;;;3.28;;
41629;SDS011;27322;49.488;8.480;2024-02-15T06:58:39;6.70;;;3.13;;
41629;SDS011;27322;49.488;8.480;2024-02-15T07:01:05;6.93;;;3.20;;
41629;SDS011;27322;49.488;8.480;2024-02-15T07:03:31;8.35;;;3.47;;
41629;SDS011;27322;49.488;8.480;2024-02-15T07:05:59;6.80;;;3.20;;
41629;SDS011;27322;49.488;8.480;2024-02-15T07:08:25;7.43;;;3.35;;
41629;SDS011;27322;49.488;8.480;2024-02-15T07:10:51;6.28;;;3.10;;
41629;SDS011;27322;49.488;8.480;2024-02-15T07:13:16;6.90;;;3.08;;
41629;SDS011;27322;49.488;8.480;2024-02-15T07:15:42;6.55;;;3.20;;
41629;SDS011;27322;49.488;8.480;2024-02-15T07:18:10;6.82;;;2.95;;
41629;SDS011;27322;49.488;8.480;2024-02-15T07:20:41;6.68;;;3.30;;
41629;SDS011;27322;49.488;8.480;2024-02-15T07:23:06;7.70;;;3.80;;
41629;SDS011;27322;49.488;8.480;2024-02-15T07:25:32;7.32;;;3.08;;
41629;SDS011;27322;49.488;8.480;2024-02-15T07:27:58;6.57;;;3.05;;
41629;SDS011;27322;49.488;8.480;2024-02-15T07:30:23;8.45;;;3.40;;
41629;SDS011;27322;49.488;8.480;2024-02-15T07:32:49;7.43;;;3.38;;
41629;SDS011;27322;49.488;8.480;2024-02-15T07:35:15;7.93;;;2.97;;
41629;SDS011;27322;49.488;8.480;2024-02-15T07:37:55;6.32;;;3.38;;
41629;SDS011;27322;49.488;8.480;2024-02-15T07:40:22;7.85;;;3.28;;
41629;SDS011;27322;49.488;8.480;2024-02-15T07:42:52;8.70;;;3.35;;
41629;SDS011;27322;49.488;8.480;2024-02-15T07:45:19;6.82;;;3.17;;
41629;SDS011;27322;49.488;8.480;2024-02-15T07:47:45;7.47;;;4.97;;
41629;SDS011;27322;49.488;8.480;2024-02-15T07:50:11;9.57;;;5.55;;
41629;SDS011;27322;49.488;8.480;2024-02-15T07:52:44;8.13;;;4.57;;
41629;SDS011;27322;49.488;8.480;2024-02-15T07:55:09;8.00;;;3.55;;
41629;SDS011;27322;49.488;8.480;2024-02-15T07:57:35;7.53;;;3.38;;
41629;SDS011;27322;49.488;8.480;2024-02-15T08:00:00;6.57;;;3.20;;
41629;SDS011;27322;49.488;8.480;2024-02-15T08:02:26;9.18;;;3.50;;
41629;SDS011;27322;49.488;8.480;2024-02-15T08:04:53;5.32;;;3.03;;
41629;SDS011;27322;49.488;8.480;2024-02-15T08:07:19;5.63;;;3.10;;
41629;SDS011;27322;49.488;8.480;2024-02-15T08:09:46;7.28;;;3.45;;
41629;SDS011;27322;49.488;8.480;2024-02-15T08:12:15;5.55;;;2.90;;
41629;SDS011;27322;49.488;8.480;2024-02-15T08:14:41;7.43;;;3.22;;
41629;SDS011;27322;49.488;8.480;2024-02-15T08:17:07;8.02;;;2.78;;
41629;SDS011;27322;49.488;8.480;2024-02-15T08:19:33;7.25;;;2.50;;
41629;SDS011;27322;49.488;8.480;2024-02-15T08:22:03;5.60;;;2.83;;
41629;SDS011;27322;49.488;8.480;2024-02-15T08:24:30;5.78;;;2.65;;
41629;SDS011;27322;49.488;8.480;2024-02-15T08:26:56;6.35;;;2.80;;
41629;SDS011;27322;49.488;8.480;2024-02-15T08:29:24;7.25;;;3.13;;
41629;SDS011;27322;49.488;8.480;2024-02-15T08:31:50;7.53;;;3.42;;
41629;SDS011;27322;49.488;8.480;2024-02-15T08:34:15;7.15;;;2.92;;
41629;SDS011;27322;49.488;8.480;2024-02-15T08:36:43;5.50;;;2.53;;
41629;SDS011;27322;49.488;8.480;2024-02-15T08:39:09;10.15;;;2.80;;
41629;SDS011;27322;49.488;8.480;2024-02-15T08:41:37;7.78;;;3.35;;
41629;SDS011;27322;49.488;8.480;2024-02-15T08:44:04;7.38;;;2.97;;
41629;SDS011;27322;49.488;8.480;2024-02-15T08:46:34;7.28;;;3.47;;
41629;SDS011;27322;49.488;8.480;2024-02-15T08:49:01;6.20;;;2.85;;
41629;SDS011;27322;49.488;8.480;2024-02-15T08:51:28;6.80;;;3.00;;
41629;SDS011;27322;49.488;8.480;2024-02-15T08:53:55;8.50;;;2.92;;
41629;SDS011;27322;49.488;8.480;2024-02-15T08:56:21;6.53;;;3.13;;
41629;SDS011;27322;49.488;8.480;2024-02-15T08:58:48;7.53;;;3.20;;
41629;SDS011;27322;49.488;8.480;2024-02-15T09:01:14;8.27;;;2.75;;
41629;SDS011;27322;49.488;8.480;2024-02-15T09:03:40;9.90;;;2.92;;
41629;SDS011;27322;49.488;8.480;2024-02-15T09:06:05;5.50;;;2.67;;
41629;SDS011;27322;49.488;8.480;2024-02-15T09:08:32;7.30;;;2.50;;
41629;SDS011;27322;49.488;8.480;2024-02-15T09:10:58;7.13;;;2.40;;
41629;SDS011;27322;49.488;8.480;2024-02-15T09:13:24;6.85;;;2.95;;
41629;SDS011;27322;49.488;8.480;2024-02-15T09:15:50;8.38;;;2.80;;
41629;SDS011;27322;49.488;8.480;2024-02-15T09:18:16;6.13;;;3.28;;
41629;SDS011;27322;49.488;8.480;2024-02-15T09:20:43;5.78;;;2.90;;
41629;SDS011;27322;49.488;8.480;2024-02-15T09:23:13;5.05;;;2.60;;
41629;SDS011;27322;49.488;8.480;2024-02-15T09:25:39;5.45;;;2.78;;
41629;SDS011;27322;49.488;8.480;2024-02-15T09:28:07;6.75;;;3.08;;
41629;SDS011;27322;49.488;8.480;2024-02-15T09:30:33;7.47;;;2.78;;
41629;SDS011;27322;49.488;8.480;2024-02-15T09:33:00;5.70;;;2.53;;
41629;SDS011;27322;49.488;8.480;2024-02-15T09:35:29;5.72;;;2.75;;
41629;SDS011;27322;49.488;8.480;2024-02-15T09:37:55;6.45;;;2.38;;
41629;SDS011;27322;49.488;8.480;2024-02-15T09:40:21;6.25;;;2.50;;
41629;SDS011;27322;49.488;8.480;2024-02-15T09:42:51;6.80;;;2.42;;
41629;SDS011;27322;49.488;8.480;2024-02-15T09:45:17;7.93;;;2.35;;
41629;SDS011;27322;49.488;8.480;2024-02-15T09:47:45;4.90;;;1.90;;
41629;SDS011;27322;49.488;8.480;2024-02-15T09:50:15;5.50;;;2.00;;
41629;SDS011;27322;49.488;8.480;2024-02-15T09:52:45;4.80;;;2.17;;
41629;SDS011;27322;49.488;8.480;2024-02-15T09:55:19;5.13;;;2.40;;
41629;SDS011;27322;49.488;8.480;2024-02-15T09:57:48;6.00;;;2.50;;
41629;SDS011;27322;49.488;8.480;2024-02-15T10:00:15;5.43;;;2.05;;
41629;SDS011;27322;49.488;8.480;2024-02-15T10:02:42;4.50;;;2.08;;
41629;SDS011;27322;49.488;8.480;2024-02-15T10:05:09;5.05;;;2.10;;
41629;SDS011;27322;49.488;8.480;2024-02-15T10:07:42;4.93;;;1.92;;
41629;SDS011;27322;49.488;8.480;2024-02-15T10:12:51;4.57;;;2.03;;
41629;SDS011;27322;49.488;8.480;2024-02-15T10:18:02;5.05;;;2.10;;
41629;SDS011;27322;49.488;8.480;2024-02-15T10:20:29;3.72;;;1.75;;
41629;SDS011;27322;49.488;8.480;2024-02-15T10:25:25;5.30;;;2.10;;
41629;SDS011;27322;49.488;8.480;2024-02-15T10:27:53;2.92;;;1.63;;
41629;SDS011;27322;49.488;8.480;2024-02-15T10:30:32;3.60;;;1.60;;
41629;SDS011;27322;49.488;8.480;2024-02-15T10:36:08;6.93;;;2.00;;
41629;SDS011;27322;49.488;8.480;2024-02-15T10:38:36;4.38;;;1.60;;
41629;SDS011;27322;49.488;8.480;2024-02-15T10:41:03;4.32;;;1.50;;
41629;SDS011;27322;49.488;8.480;2024-02-15T10:43:33;5.18;;;1.70;;
41629;SDS011;27322;49.488;8.480;2024-02-15T10:45:59;4.10;;;1.77;;
41629;SDS011;27322;49.488;8.480;2024-02-15T10:48:26;5.68;;;1.80;;
41629;SDS011;27322;49.488;8.480;2024-02-15T10:50:53;4.15;;;1.30;;
41629;SDS011;27322;49.488;8.480;2024-02-15T10:53:22;3.58;;;1.38;;
41629;SDS011;27322;49.488;8.480;2024-02-15T10:55:59;3.75;;;1.38;;
41629;SDS011;27322;49.488;8.480;2024-02-15T10:58:32;2.75;;;1.10;;
41629;SDS011;27322;49.488;8.480;2024-02-15T11:01:03;3.42;;;1.17;;
41629;SDS011;27322;49.488;8.480;2024-02-15T11:03:36;2.97;;;1.10;;
41629;SDS011;27322;49.488;8.480;2024-02-15T11:06:07;5.00;;;1.00;;
41629;SDS011;27322;49.488;8.480;2024-02-15T11:08:35;3.25;;;1.00;;
41629;SDS011;27322;49.488;8.480;2024-02-15T11:11:01;4.63;;;1.38;;
41629;SDS011;27322;49.488;8.480;2024-02-15T11:13:29;3.67;;;0.90;;
41629;SDS011;27322;49.488;8.480;2024-02-15T11:15:55;4.20;;;1.10;;
41629;SDS011;27322;49.488;8.480;2024-02-15T11:21:13;2.92;;;1.00;;
41629;SDS011;27322;49.488;8.480;2024-02-15T11:23:45;2.42;;;0.90;;
41629;SDS011;27322;49.488;8.480;2024-02-15T11:26:42;3.38;;;1.10;;
41629;SDS011;27322;49.488;8.480;2024-02-15T11:29:39;3.22;;;1.17;;
41629;SDS011;27322;49.488;8.480;2024-02-15T11:35:09;2.67;;;1.02;;
41629;SDS011;27322;49.488;8.480;2024-02-15T11:40:16;3.83;;;1.13;;
41629;SDS011;27322;49.488;8.480;2024-02-15T11:42:43;4.55;;;1.00;;
41629;SDS011;27322;49.488;8.480;2024-02-15T11:45:09;3.75;;;1.00;;
41629;SDS011;27322;49.488;8.480;2024-02-15T11:47:37;2.70;;;1.00;;
41629;SDS011;27322;49.488;8.480;2024-02-15T11:50:08;3.28;;;0.98;;
41629;SDS011;27322;49.488;8.480;2024-02-15T11:52:40;3.28;;;1.10;;
41629;SDS011;27322;49.488;8.480;2024-02-15T11:55:07;2.42;;;0.93;;
41629;SDS011;27322;49.488;8.480;2024-02-15T11:57:38;3.33;;;0.90;;
41629;SDS011;27322;49.488;8.480;2024-02-15T12:00:20;2.25;;;0.98;;
41629;SDS011;27322;49.488;8.480;2024-02-15T12:03:05;3.88;;;1.20;;
41629;SDS011;27322;49.488;8.480;2024-02-15T12:05:50;4.38;;;1.30;;
41629;SDS011;27322;49.488;8.480;2024-02-15T12:08:34;3.15;;;1.05;;
41629;SDS011;27322;49.488;8.480;2024-02-15T12:11:29;4.00;;;0.90;;
41629;SDS011;27322;49.488;8.480;2024-02-15T12:14:14;3.20;;;0.80;;
41629;SDS011;27322;49.488;8.480;2024-02-15T12:17:02;3.40;;;0.77;;
41629;SDS011;27322;49.488;8.480;2024-02-15T12:19:48;2.67;;;0.90;;
41629;SDS011;27322;49.488;8.480;2024-02-15T12:22:16;3.55;;;1.00;;
41629;SDS011;27322;49.488;8.480;2024-02-15T12:24:52;4.35;;;0.80;;
41629;SDS011;27322;49.488;8.480;2024-02-15T12:27:32;2.05;;;0.77;;
41629;SDS011;27322;49.488;8.480;2024-02-15T12:29:59;3.38;;;0.57;;
41629;SDS011;27322;49.488;8.480;2024-02-15T12:32:26;2.92;;;1.00;;
41629;SDS011;27322;49.488;8.480;2024-02-15T12:34:52;2.22;;;0.57;;
41629;SDS011;27322;49.488;8.480;2024-02-15T12:37:20;4.53;;;1.00;;
41629;SDS011;27322;49.488;8.480;2024-02-15T12:39:49;2.08;;;0.63;;
41629;SDS011;27322;49.488;8.480;2024-02-15T12:42:15;3.45;;;0.80;;
41629;SDS011;27322;49.488;8.480;2024-02-15T12:44:45;3.45;;;0.80;;
41629;SDS011;27322;49.488;8.480;2024-02-15T12:47:22;3.22;;;0.70;;
41629;SDS011;27322;49.488;8.480;2024-02-15T12:49:48;2.63;;;0.93;;
41629;SDS011;27322;49.488;8.480;2024-02-15T12:55:18;2.30;;;0.75;;
41629;SDS011;27322;49.488;8.480;2024-02-15T12:57:47;4.35;;;1.00;;
41629;SDS011;27322;49.488;8.480;2024-02-15T13:00:17;4.18;;;0.98;;
41629;SDS011;27322;49.488;8.480;2024-02-15T13:02:58;4.70;;;0.93;;
41629;SDS011;27322;49.488;8.480;2024-02-15T13:05:27;3.42;;;1.02;;
41629;SDS011;27322;49.488;8.480;2024-02-15T13:07:53;3.00;;;0.93;;
41629;SDS011;27322;49.488;8.480;2024-02-15T13:10:20;2.50;;;0.93;;
41629;SDS011;27322;49.488;8.480;2024-02-15T13:12:47;2.25;;;0.80;;
41629;SDS011;27322;49.488;8.480;2024-02-15T13:15:13;3.40;;;0.65;;
41629;SDS011;27322;49.488;8.480;2024-02-15T13:17:42;3.60;;;0.90;;
41629;SDS011;27322;49.488;8.480;2024-02-15T13:20:18;4.28;;;0.93;;
41629;SDS011;27322;49.488;8.480;2024-02-15T13:22:52;2.95;;;0.80;;
41629;SDS011;27322;49.488;8.480;2024-02-15T13:25:18;2.42;;;0.80;;
41629;SDS011;27322;49.488;8.480;2024-02-15T13:27:46;1.88;;;0.80;;
41629;SDS011;27322;49.488;8.480;2024-02-15T13:30:12;4.47;;;0.90;;
41629;SDS011;27322;49.488;8.480;2024-02-15T13:32:39;2.38;;;0.70;;
41629;SDS011;27322;49.488;8.480;2024-02-15T13:35:09;2.45;;;0.93;;
41629;SDS011;27322;49.488;8.480;2024-02-15T13:40:19;2.75;;;0.68;;
41629;SDS011;27322;49.488;8.480;2024-02-15T13:42:48;2.65;;;0.75;;
41629;SDS011;27322;49.488;8.480;2024-02-15T13:45:18;3.97;;;0.77;;
41629;SDS011;27322;49.488;8.480;2024-02-15T13:47:54;1.98;;;0.60;;
41629;SDS011;27322;49.488;8.480;2024-02-15T13:50:20;3.03;;;0.50;;
41629;SDS011;27322;49.488;8.480;2024-02-15T13:52:46;2.17;;;0.57;;
41629;SDS011;27322;49.488;8.480;2024-02-15T13:55:16;2.80;;;0.50;;
41629;SDS011;27322;49.488;8.480;2024-02-15T13:57:44;1.95;;;0.55;;
41629;SDS011;27322;49.488;8.480;2024-02-15T14:00:12;1.52;;;0.50;;
41629;SDS011;27322;49.488;8.480;2024-02-15T14:02:42;2.35;;;0.45;;
41629;SDS011;27322;49.488;8.480;2024-02-15T14:05:08;3.63;;;0.50;;
41629;SDS011;27322;49.488;8.480;2024-02-15T14:07:36;2.70;;;0.60;;
41629;SDS011;27322;49.488;8.480;2024-02-15T14:10:03;2.95;;;0.57;;
41629;SDS011;27322;49.488;8.480;2024-02-15T14:12:29;2.10;;;0.50;;
41629;SDS011;27322;49.488;8.480;2024-02-15T14:14:55;4.32;;;0.70;;
41629;SDS011;27322;49.488;8.480;2024-02-15T14:17:21;1.73;;;0.60;;
41629;SDS011;27322;49.488;8.480;2024-02-15T14:19:47;1.33;;;0.52;;
41629;SDS011;27322;49.488;8.480;2024-02-15T14:22:13;3.63;;;0.50;;
41629;SDS011;27322;49.488;8.480;2024-02-15T14:24:44;2.08;;;0.60;;
41629;SDS011;27322;49.488;8.480;2024-02-15T14:27:10;2.72;;;0.55;;
41629;SDS011;27322;49.488;8.480;2024-02-15T14:29:39;2.72;;;0.60;;
41629;SDS011;27322;49.488;8.480;2024-02-15T14:32:30;3.30;;;0.50;;
41629;SDS011;27322;49.488;8.480;2024-02-15T14:35:16;1.52;;;0.45;;
41629;SDS011;27322;49.488;8.480;2024-02-15T14:37:43;2.22;;;0.60;;
41629;SDS011;27322;49.488;8.480;2024-02-15T14:40:09;2.38;;;0.60;;
41629;SDS011;27322;49.488;8.480;2024-02-15T14:42:39;1.83;;;0.68;;
41629;SDS011;27322;49.488;8.480;2024-02-15T14:45:06;6.97;;;0.60;;
41629;SDS011;27322;49.488;8.480;2024-02-15T14:47:33;3.15;;;0.63;;
41629;SDS011;27322;49.488;8.480;2024-02-15T14:49:59;2.85;;;0.80;;
41629;SDS011;27322;49.488;8.480;2024-02-15T14:52:25;2.22;;;0.50;;
41629;SDS011;27322;49.488;8.480;2024-02-15T14:54:51;2.97;;;0.60;;
41629;SDS011;27322;49.488;8.480;2024-02-15T14:57:17;1.98;;;0.55;;
41629;SDS011;27322;49.488;8.480;2024-02-15T14:59:42;2.45;;;0.60;;
41629;SDS011;27322;49.488;8.480;2024-02-15T15:02:08;2.20;;;0.68;;
41629;SDS011;27322;49.488;8.480;2024-02-15T15:04:34;3.08;;;0.60;;
41629;SDS011;27322;49.488;8.480;2024-02-15T15:07:20;2.85;;;0.50;;
41629;SDS011;27322;49.488;8.480;2024-02-15T15:10:04;2.95;;;0.85;;
41629;SDS011;27322;49.488;8.480;2024-02-15T15:15:15;2.20;;;0.50;;
41629;SDS011;27322;49.488;8.480;2024-02-15T15:17:43;4.25;;;0.68;;
41629;SDS011;27322;49.488;8.480;2024-02-15T15:20:09;2.33;;;0.70;;
41629;SDS011;27322;49.488;8.480;2024-02-15T15:22:35;1.50;;;0.50;;
41629;SDS011;27322;49.488;8.480;2024-02-15T15:25:01;2.53;;;0.60;;
41629;SDS011;27322;49.488;8.480;2024-02-15T15:27:28;1.55;;;0.60;;